sensor_id;sensor_type;location;lat;lon;timestamp;P1;durP1;ratioP1;P2;durP2;ratioP2
19358;SDS011;9815;52.334;20.890;2024-02-14T00:00:32;15.07;;;7.30;;
19358;SDS011;9815;52.334;20.890;2024-02-14T00:03:01;16.87;;;7.50;;
19358;SDS011;9815;52.334;20.890;2024-02-14T00:05:31;14.50;;;7.20;;
19358;SDS011;9815;52.334;20.890;2024-02-14T00:08:00;17.90;;;7.97;;
19358;SDS011;9815;52.334;20.890;2024-02-14T00:10:29;17.97;;;8.13;;
19358;SDS011;9815;52.334;20.890;2024-02-14T00:12:58;18.33;;;8.13;;
19358;SDS011;9815;52.334;20.890;2024-02-14T00:15:26;19.07;;;7.47;;
19358;SDS011;9815;52.334;20.890;2024-02-14T00:17:55;17.70;;;7.80;;
19358;SDS011;9815;52.334;20.890;2024-02-14T00:20:24;14.93;;;7.53;;
19358;SDS011;9815;52.334;20.890;2024-02-14T00:22:54;16.57;;;7.60;;
19358;SDS011;9815;52.334;20.890;2024-02-14T00:25:22;15.40;;;7.50;;
19358;SDS011;9815;52.334;20.890;2024-02-14T00:27:51;17.37;;;7.33;;
19358;SDS011;9815;52.334;20.890;2024-02-14T00:30:20;15.27;;;7.97;;
19358;SDS011;9815;52.334;20.890;2024-02-14T00:32:50;26.67;;;9.03;;
19358;SDS011;9815;52.334;20.890;2024-02-14T00:35:19;26.63;;;9.40;;
19358;SDS011;9815;52.334;20.890;2024-02-14T00:37:47;18.67;;;8.27;;
19358;SDS011;9815;52.334;20.890;2024-02-14T00:40:17;21.97;;;9.10;;
19358;SDS011;9815;52.334;20.890;2024-02-14T00:42:46;17.10;;;8.93;;
19358;SDS011;9815;52.334;20.890;2024-02-14T00:45:14;16.90;;;8.47;;
19358;SDS011;9815;52.334;20.890;2024-02-14T00:47:42;19.93;;;8.77;;
19358;SDS011;9815;52.334;20.890;2024-02-14T00:50:11;19.40;;;8.87;;
19358;SDS011;9815;52.334;20.890;2024-02-14T00:52:40;19.50;;;7.90;;
19358;SDS011;9815;52.334;20.890;2024-02-14T00:55:08;19.17;;;7.87;;
19358;SDS011;9815;52.334;20.890;2024-02-14T00:57:39;17.97;;;8.20;;
19358;SDS011;9815;52.334;20.890;2024-02-14T01:00:08;19.40;;;8.40;;
19358;SDS011;9815;52.334;20.890;2024-02-14T01:02:37;20.47;;;7.83;;
19358;SDS011;9815;52.334;20.890;2024-02-14T01:05:05;13.30;;;7.80;;
19358;SDS011;9815;52.334;20.890;2024-02-14T01:07:34;12.43;;;7.37;;
19358;SDS011;9815;52.334;20.890;2024-02-14T01:10:03;13.63;;;7.53;;
19358;SDS011;9815;52.334;20.890;2024-02-14T01:12:32;15.20;;;7.70;;
19358;SDS011;9815;52.334;20.890;2024-02-14T01:15:02;16.93;;;7.83;;
19358;SDS011;9815;52.334;20.890;2024-02-14T01:17:31;15.30;;;7.30;;
19358;SDS011;9815;52.334;20.890;2024-02-14T01:20:02;16.47;;;7.03;;
19358;SDS011;9815;52.334;20.890;2024-02-14T01:22:31;15.97;;;7.10;;
19358;SDS011;9815;52.334;20.890;2024-02-14T01:24:59;14.30;;;7.10;;
19358;SDS011;9815;52.334;20.890;2024-02-14T01:27:29;14.57;;;7.27;;
19358;SDS011;9815;52.334;20.890;2024-02-14T01:29:57;16.20;;;7.23;;
19358;SDS011;9815;52.334;20.890;2024-02-14T01:32:27;15.37;;;6.80;;
19358;SDS011;9815;52.334;20.890;2024-02-14T01:34:57;14.80;;;7.57;;
19358;SDS011;9815;52.334;20.890;2024-02-14T01:37:26;14.50;;;7.37;;
19358;SDS011;9815;52.334;20.890;2024-02-14T01:39:55;18.60;;;7.90;;
19358;SDS011;9815;52.334;20.890;2024-02-14T01:42:24;15.83;;;7.23;;
19358;SDS011;9815;52.334;20.890;2024-02-14T01:44:54;15.40;;;8.40;;
19358;SDS011;9815;52.334;20.890;2024-02-14T01:47:22;18.33;;;9.67;;
19358;SDS011;9815;52.334;20.890;2024-02-14T01:49:52;22.10;;;9.57;;
19358;SDS011;9815;52.334;20.890;2024-02-14T01:52:21;20.00;;;8.70;;
19358;SDS011;9815;52.334;20.890;2024-02-14T01:54:49;16.40;;;9.23;;
19358;SDS011;9815;52.334;20.890;2024-02-14T01:57:19;26.30;;;11.33;;
19358;SDS011;9815;52.334;20.890;2024-02-14T01:59:48;27.17;;;11.47;;
19358;SDS011;9815;52.334;20.890;2024-02-14T02:02:19;25.67;;;11.87;;
19358;SDS011;9815;52.334;20.890;2024-02-14T02:04:48;22.50;;;11.47;;
19358;SDS011;9815;52.334;20.890;2024-02-14T02:07:18;19.93;;;10.97;;
19358;SDS011;9815;52.334;20.890;2024-02-14T02:09:47;17.47;;;9.40;;
19358;SDS011;9815;52.334;20.890;2024-02-14T02:12:15;23.90;;;11.00;;
19358;SDS011;9815;52.334;20.890;2024-02-14T02:14:44;15.23;;;8.63;;
19358;SDS011;9815;52.334;20.890;2024-02-14T02:17:12;20.23;;;9.10;;
19358;SDS011;9815;52.334;20.890;2024-02-14T02:19:42;18.33;;;8.63;;
19358;SDS011;9815;52.334;20.890;2024-02-14T02:22:10;17.73;;;8.40;;
19358;SDS011;9815;52.334;20.890;2024-02-14T02:24:40;15.60;;;8.33;;
19358;SDS011;9815;52.334;20.890;2024-02-14T02:27:08;14.77;;;8.03;;
19358;SDS011;9815;52.334;20.890;2024-02-14T02:29:36;21.50;;;8.90;;
19358;SDS011;9815;52.334;20.890;2024-02-14T02:32:05;18.73;;;8.10;;
19358;SDS011;9815;52.334;20.890;2024-02-14T02:34:36;16.07;;;8.43;;
19358;SDS011;9815;52.334;20.890;2024-02-14T02:37:06;16.07;;;7.90;;
19358;SDS011;9815;52.334;20.890;2024-02-14T02:39:36;17.37;;;8.60;;
19358;SDS011;9815;52.334;20.890;2024-02-14T02:42:05;15.30;;;7.63;;
19358;SDS011;9815;52.334;20.890;2024-02-14T02:44:35;13.60;;;7.70;;
19358;SDS011;9815;52.334;20.890;2024-02-14T02:47:04;16.67;;;7.17;;
19358;SDS011;9815;52.334;20.890;2024-02-14T02:49:32;13.60;;;7.57;;
19358;SDS011;9815;52.334;20.890;2024-02-14T02:52:03;14.07;;;7.37;;
19358;SDS011;9815;52.334;20.890;2024-02-14T02:54:31;20.30;;;8.33;;
19358;SDS011;9815;52.334;20.890;2024-02-14T02:57:00;13.03;;;7.47;;
19358;SDS011;9815;52.334;20.890;2024-02-14T02:59:31;17.57;;;7.97;;
19358;SDS011;9815;52.334;20.890;2024-02-14T03:01:59;17.03;;;8.23;;
19358;SDS011;9815;52.334;20.890;2024-02-14T03:04:28;15.17;;;8.17;;
19358;SDS011;9815;52.334;20.890;2024-02-14T03:07:17;17.77;;;8.27;;
19358;SDS011;9815;52.334;20.890;2024-02-14T03:09:46;16.77;;;7.87;;
19358;SDS011;9815;52.334;20.890;2024-02-14T03:12:14;13.90;;;8.10;;
19358;SDS011;9815;52.334;20.890;2024-02-14T03:14:46;18.43;;;8.53;;
19358;SDS011;9815;52.334;20.890;2024-02-14T03:17:16;13.37;;;8.00;;
19358;SDS011;9815;52.334;20.890;2024-02-14T03:19:44;21.97;;;8.57;;
19358;SDS011;9815;52.334;20.890;2024-02-14T03:22:15;15.57;;;7.83;;
19358;SDS011;9815;52.334;20.890;2024-02-14T03:24:45;14.47;;;8.20;;
19358;SDS011;9815;52.334;20.890;2024-02-14T03:27:13;19.33;;;7.93;;
19358;SDS011;9815;52.334;20.890;2024-02-14T03:29:43;17.33;;;7.67;;
19358;SDS011;9815;52.334;20.890;2024-02-14T03:32:15;17.30;;;7.77;;
19358;SDS011;9815;52.334;20.890;2024-02-14T03:34:44;16.40;;;7.70;;
19358;SDS011;9815;52.334;20.890;2024-02-14T03:37:12;17.87;;;8.23;;
19358;SDS011;9815;52.334;20.890;2024-02-14T03:39:41;16.50;;;8.07;;
19358;SDS011;9815;52.334;20.890;2024-02-14T03:42:09;12.47;;;7.47;;
19358;SDS011;9815;52.334;20.890;2024-02-14T03:44:38;16.93;;;8.03;;
19358;SDS011;9815;52.334;20.890;2024-02-14T03:47:07;17.60;;;8.43;;
19358;SDS011;9815;52.334;20.890;2024-02-14T03:49:37;20.07;;;9.33;;
19358;SDS011;9815;52.334;20.890;2024-02-14T03:52:07;25.57;;;9.23;;
19358;SDS011;9815;52.334;20.890;2024-02-14T03:54:36;18.30;;;9.00;;
19358;SDS011;9815;52.334;20.890;2024-02-14T03:57:05;17.80;;;9.57;;
19358;SDS011;9815;52.334;20.890;2024-02-14T03:59:35;21.53;;;9.50;;
19358;SDS011;9815;52.334;20.890;2024-02-14T04:02:05;21.17;;;9.73;;
19358;SDS011;9815;52.334;20.890;2024-02-14T04:04:38;18.83;;;9.30;;
19358;SDS011;9815;52.334;20.890;2024-02-14T04:07:08;24.10;;;9.20;;
19358;SDS011;9815;52.334;20.890;2024-02-14T04:09:37;18.73;;;8.00;;
19358;SDS011;9815;52.334;20.890;2024-02-14T04:12:06;16.47;;;7.97;;
19358;SDS011;9815;52.334;20.890;2024-02-14T04:14:36;17.60;;;9.80;;
19358;SDS011;9815;52.334;20.890;2024-02-14T04:17:05;19.07;;;8.73;;
19358;SDS011;9815;52.334;20.890;2024-02-14T04:19:34;21.03;;;9.40;;
19358;SDS011;9815;52.334;20.890;2024-02-14T04:22:04;24.47;;;10.57;;
19358;SDS011;9815;52.334;20.890;2024-02-14T04:24:33;21.77;;;10.47;;
19358;SDS011;9815;52.334;20.890;2024-02-14T04:27:02;22.37;;;10.27;;
19358;SDS011;9815;52.334;20.890;2024-02-14T04:29:31;21.83;;;9.47;;
19358;SDS011;9815;52.334;20.890;2024-02-14T04:32:02;21.50;;;10.43;;
19358;SDS011;9815;52.334;20.890;2024-02-14T04:34:31;25.20;;;11.40;;
19358;SDS011;9815;52.334;20.890;2024-02-14T04:37:00;20.47;;;10.43;;
19358;SDS011;9815;52.334;20.890;2024-02-14T04:39:30;25.07;;;11.23;;
19358;SDS011;9815;52.334;20.890;2024-02-14T04:41:59;27.87;;;11.50;;
19358;SDS011;9815;52.334;20.890;2024-02-14T04:44:28;28.63;;;11.43;;
19358;SDS011;9815;52.334;20.890;2024-02-14T04:46:58;25.80;;;11.63;;
19358;SDS011;9815;52.334;20.890;2024-02-14T04:49:26;33.07;;;12.90;;
19358;SDS011;9815;52.334;20.890;2024-02-14T04:51:56;25.63;;;11.97;;
19358;SDS011;9815;52.334;20.890;2024-02-14T04:54:25;27.33;;;11.20;;
19358;SDS011;9815;52.334;20.890;2024-02-14T04:56:56;29.53;;;12.87;;
19358;SDS011;9815;52.334;20.890;2024-02-14T04:59:28;28.77;;;13.30;;
19358;SDS011;9815;52.334;20.890;2024-02-14T05:01:57;31.17;;;12.77;;
19358;SDS011;9815;52.334;20.890;2024-02-14T05:04:25;27.93;;;13.47;;
19358;SDS011;9815;52.334;20.890;2024-02-14T05:06:54;33.70;;;12.53;;
19358;SDS011;9815;52.334;20.890;2024-02-14T05:09:25;29.47;;;13.63;;
19358;SDS011;9815;52.334;20.890;2024-02-14T05:11:53;31.70;;;14.23;;
19358;SDS011;9815;52.334;20.890;2024-02-14T05:14:23;34.60;;;14.83;;
19358;SDS011;9815;52.334;20.890;2024-02-14T05:16:52;30.33;;;15.37;;
19358;SDS011;9815;52.334;20.890;2024-02-14T05:19:22;31.90;;;14.90;;
19358;SDS011;9815;52.334;20.890;2024-02-14T05:21:51;32.93;;;15.53;;
19358;SDS011;9815;52.334;20.890;2024-02-14T05:24:19;31.77;;;15.00;;
19358;SDS011;9815;52.334;20.890;2024-02-14T05:26:48;32.90;;;15.10;;
19358;SDS011;9815;52.334;20.890;2024-02-14T05:29:20;34.23;;;16.10;;
19358;SDS011;9815;52.334;20.890;2024-02-14T05:31:48;35.40;;;15.73;;
19358;SDS011;9815;52.334;20.890;2024-02-14T05:34:18;41.23;;;15.83;;
19358;SDS011;9815;52.334;20.890;2024-02-14T05:36:47;34.13;;;15.10;;
19358;SDS011;9815;52.334;20.890;2024-02-14T05:39:15;41.90;;;16.37;;
19358;SDS011;9815;52.334;20.890;2024-02-14T05:41:45;35.80;;;16.27;;
19358;SDS011;9815;52.334;20.890;2024-02-14T05:44:14;30.37;;;14.57;;
19358;SDS011;9815;52.334;20.890;2024-02-14T05:46:44;30.70;;;15.30;;
19358;SDS011;9815;52.334;20.890;2024-02-14T05:49:14;32.27;;;15.30;;
19358;SDS011;9815;52.334;20.890;2024-02-14T05:51:44;41.23;;;16.43;;
19358;SDS011;9815;52.334;20.890;2024-02-14T05:54:12;31.07;;;16.40;;
19358;SDS011;9815;52.334;20.890;2024-02-14T05:56:40;35.70;;;16.90;;
19358;SDS011;9815;52.334;20.890;2024-02-14T05:59:09;30.60;;;14.60;;
19358;SDS011;9815;52.334;20.890;2024-02-14T06:01:38;34.90;;;15.23;;
19358;SDS011;9815;52.334;20.890;2024-02-14T06:04:08;35.03;;;15.40;;
19358;SDS011;9815;52.334;20.890;2024-02-14T06:06:36;35.17;;;16.00;;
19358;SDS011;9815;52.334;20.890;2024-02-14T06:09:05;45.23;;;16.60;;
19358;SDS011;9815;52.334;20.890;2024-02-14T06:11:37;32.30;;;14.80;;
19358;SDS011;9815;52.334;20.890;2024-02-14T06:14:06;31.77;;;15.20;;
19358;SDS011;9815;52.334;20.890;2024-02-14T06:16:35;37.70;;;15.77;;
19358;SDS011;9815;52.334;20.890;2024-02-14T06:19:03;41.63;;;16.03;;
19358;SDS011;9815;52.334;20.890;2024-02-14T06:21:34;37.50;;;16.23;;
19358;SDS011;9815;52.334;20.890;2024-02-14T06:24:02;37.13;;;16.07;;
19358;SDS011;9815;52.334;20.890;2024-02-14T06:26:31;38.50;;;15.83;;
19358;SDS011;9815;52.334;20.890;2024-02-14T06:29:00;34.90;;;17.23;;
19358;SDS011;9815;52.334;20.890;2024-02-14T06:31:32;36.47;;;16.07;;
19358;SDS011;9815;52.334;20.890;2024-02-14T06:34:01;44.33;;;16.90;;
19358;SDS011;9815;52.334;20.890;2024-02-14T06:36:30;35.20;;;16.67;;
19358;SDS011;9815;52.334;20.890;2024-02-14T06:38:59;34.87;;;16.43;;
19358;SDS011;9815;52.334;20.890;2024-02-14T06:41:28;47.83;;;16.13;;
19358;SDS011;9815;52.334;20.890;2024-02-14T06:43:57;38.33;;;17.10;;
19358;SDS011;9815;52.334;20.890;2024-02-14T06:46:26;37.30;;;16.80;;
19358;SDS011;9815;52.334;20.890;2024-02-14T06:48:54;37.13;;;17.13;;
19358;SDS011;9815;52.334;20.890;2024-02-14T06:51:24;36.70;;;17.77;;
19358;SDS011;9815;52.334;20.890;2024-02-14T06:53:52;43.17;;;17.83;;
19358;SDS011;9815;52.334;20.890;2024-02-14T06:56:22;35.73;;;18.10;;
19358;SDS011;9815;52.334;20.890;2024-02-14T06:58:51;35.90;;;18.60;;
19358;SDS011;9815;52.334;20.890;2024-02-14T07:01:20;41.40;;;18.93;;
19358;SDS011;9815;52.334;20.890;2024-02-14T07:03:49;43.30;;;19.53;;
19358;SDS011;9815;52.334;20.890;2024-02-14T07:06:18;48.13;;;20.23;;
19358;SDS011;9815;52.334;20.890;2024-02-14T07:08:47;38.30;;;18.60;;
19358;SDS011;9815;52.334;20.890;2024-02-14T07:11:16;47.37;;;18.90;;
19358;SDS011;9815;52.334;20.890;2024-02-14T07:13:46;49.27;;;20.60;;
19358;SDS011;9815;52.334;20.890;2024-02-14T07:16:14;48.73;;;21.07;;
19358;SDS011;9815;52.334;20.890;2024-02-14T07:18:44;50.77;;;20.83;;
19358;SDS011;9815;52.334;20.890;2024-02-14T07:21:12;50.03;;;21.20;;
19358;SDS011;9815;52.334;20.890;2024-02-14T07:23:41;43.33;;;19.90;;
19358;SDS011;9815;52.334;20.890;2024-02-14T07:26:10;42.20;;;20.60;;
19358;SDS011;9815;52.334;20.890;2024-02-14T07:28:38;46.27;;;20.43;;
19358;SDS011;9815;52.334;20.890;2024-02-14T07:31:09;46.17;;;20.77;;
19358;SDS011;9815;52.334;20.890;2024-02-14T07:33:37;39.17;;;18.93;;
19358;SDS011;9815;52.334;20.890;2024-02-14T07:36:06;37.20;;;17.87;;
19358;SDS011;9815;52.334;20.890;2024-02-14T07:38:35;43.00;;;18.57;;
19358;SDS011;9815;52.334;20.890;2024-02-14T07:41:04;38.20;;;18.27;;
19358;SDS011;9815;52.334;20.890;2024-02-14T07:43:32;44.17;;;18.53;;
19358;SDS011;9815;52.334;20.890;2024-02-14T07:46:01;42.17;;;18.77;;
19358;SDS011;9815;52.334;20.890;2024-02-14T07:48:33;43.80;;;19.50;;
19358;SDS011;9815;52.334;20.890;2024-02-14T07:51:02;43.27;;;19.60;;
19358;SDS011;9815;52.334;20.890;2024-02-14T07:53:35;38.97;;;17.50;;
19358;SDS011;9815;52.334;20.890;2024-02-14T07:56:03;39.50;;;19.10;;
19358;SDS011;9815;52.334;20.890;2024-02-14T07:58:32;38.97;;;18.23;;
19358;SDS011;9815;52.334;20.890;2024-02-14T08:01:01;42.33;;;20.43;;
19358;SDS011;9815;52.334;20.890;2024-02-14T08:03:30;43.03;;;19.27;;
19358;SDS011;9815;52.334;20.890;2024-02-14T08:06:00;39.20;;;18.70;;
19358;SDS011;9815;52.334;20.890;2024-02-14T08:08:29;34.67;;;18.47;;
19358;SDS011;9815;52.334;20.890;2024-02-14T08:10:58;45.63;;;20.50;;
19358;SDS011;9815;52.334;20.890;2024-02-14T08:13:26;47.60;;;19.20;;
19358;SDS011;9815;52.334;20.890;2024-02-14T08:15:55;29.77;;;16.20;;
19358;SDS011;9815;52.334;20.890;2024-02-14T08:18:24;36.83;;;17.90;;
19358;SDS011;9815;52.334;20.890;2024-02-14T08:20:54;38.83;;;17.43;;
19358;SDS011;9815;52.334;20.890;2024-02-14T08:23:24;35.03;;;17.60;;
19358;SDS011;9815;52.334;20.890;2024-02-14T08:25:52;34.03;;;17.03;;
19358;SDS011;9815;52.334;20.890;2024-02-14T08:28:21;34.23;;;17.07;;
19358;SDS011;9815;52.334;20.890;2024-02-14T08:30:49;38.93;;;16.83;;
19358;SDS011;9815;52.334;20.890;2024-02-14T08:33:18;33.57;;;17.23;;
19358;SDS011;9815;52.334;20.890;2024-02-14T08:35:46;37.83;;;16.60;;
19358;SDS011;9815;52.334;20.890;2024-02-14T08:38:15;28.63;;;15.43;;
19358;SDS011;9815;52.334;20.890;2024-02-14T08:40:45;35.33;;;14.87;;
19358;SDS011;9815;52.334;20.890;2024-02-14T08:43:14;29.50;;;14.27;;
19358;SDS011;9815;52.334;20.890;2024-02-14T08:45:42;33.70;;;14.87;;
19358;SDS011;9815;52.334;20.890;2024-02-14T08:48:11;28.63;;;14.43;;
19358;SDS011;9815;52.334;20.890;2024-02-14T08:50:39;27.83;;;13.23;;
19358;SDS011;9815;52.334;20.890;2024-02-14T08:53:08;26.30;;;12.73;;
19358;SDS011;9815;52.334;20.890;2024-02-14T08:55:39;26.90;;;12.80;;
19358;SDS011;9815;52.334;20.890;2024-02-14T08:58:10;24.20;;;11.73;;
19358;SDS011;9815;52.334;20.890;2024-02-14T09:00:39;24.30;;;10.87;;
19358;SDS011;9815;52.334;20.890;2024-02-14T09:03:08;22.83;;;11.23;;
19358;SDS011;9815;52.334;20.890;2024-02-14T09:05:37;25.13;;;9.70;;
19358;SDS011;9815;52.334;20.890;2024-02-14T09:08:06;16.30;;;9.00;;
19358;SDS011;9815;52.334;20.890;2024-02-14T09:10:34;22.20;;;9.80;;
19358;SDS011;9815;52.334;20.890;2024-02-14T09:13:04;16.33;;;8.37;;
19358;SDS011;9815;52.334;20.890;2024-02-14T09:15:35;14.63;;;8.60;;
19358;SDS011;9815;52.334;20.890;2024-02-14T09:18:04;19.07;;;8.13;;
19358;SDS011;9815;52.334;20.890;2024-02-14T09:20:33;16.93;;;7.63;;
19358;SDS011;9815;52.334;20.890;2024-02-14T09:23:01;13.03;;;7.17;;
19358;SDS011;9815;52.334;20.890;2024-02-14T09:25:30;13.67;;;6.50;;
19358;SDS011;9815;52.334;20.890;2024-02-14T09:27:58;14.47;;;6.50;;
19358;SDS011;9815;52.334;20.890;2024-02-14T09:30:27;11.37;;;6.00;;
19358;SDS011;9815;52.334;20.890;2024-02-14T09:33:06;11.80;;;6.30;;
19358;SDS011;9815;52.334;20.890;2024-02-14T09:35:34;13.60;;;6.30;;
19358;SDS011;9815;52.334;20.890;2024-02-14T09:38:05;10.20;;;5.80;;
19358;SDS011;9815;52.334;20.890;2024-02-14T09:40:33;12.13;;;5.30;;
19358;SDS011;9815;52.334;20.890;2024-02-14T09:43:03;11.70;;;5.40;;
19358;SDS011;9815;52.334;20.890;2024-02-14T09:45:37;9.87;;;5.30;;
19358;SDS011;9815;52.334;20.890;2024-02-14T09:48:12;11.80;;;5.30;;
19358;SDS011;9815;52.334;20.890;2024-02-14T09:50:44;10.50;;;4.40;;
19358;SDS011;9815;52.334;20.890;2024-02-14T09:53:15;8.13;;;3.90;;
19358;SDS011;9815;52.334;20.890;2024-02-14T09:55:45;8.47;;;3.80;;
19358;SDS011;9815;52.334;20.890;2024-02-14T09:58:14;7.17;;;3.90;;
19358;SDS011;9815;52.334;20.890;2024-02-14T10:00:43;7.57;;;4.07;;
19358;SDS011;9815;52.334;20.890;2024-02-14T10:03:13;4.77;;;3.23;;
19358;SDS011;9815;52.334;20.890;2024-02-14T10:05:44;5.70;;;4.10;;
19358;SDS011;9815;52.334;20.890;2024-02-14T10:08:15;10.07;;;3.83;;
19358;SDS011;9815;52.334;20.890;2024-02-14T10:10:44;5.67;;;3.50;;
19358;SDS011;9815;52.334;20.890;2024-02-14T10:13:18;7.30;;;3.80;;
19358;SDS011;9815;52.334;20.890;2024-02-14T10:15:46;10.30;;;3.87;;
19358;SDS011;9815;52.334;20.890;2024-02-14T10:18:16;8.60;;;4.03;;
19358;SDS011;9815;52.334;20.890;2024-02-14T10:20:52;8.83;;;3.93;;
19358;SDS011;9815;52.334;20.890;2024-02-14T10:23:21;7.23;;;4.03;;
19358;SDS011;9815;52.334;20.890;2024-02-14T10:25:50;8.00;;;3.90;;
19358;SDS011;9815;52.334;20.890;2024-02-14T10:28:20;7.13;;;3.40;;
19358;SDS011;9815;52.334;20.890;2024-02-14T10:30:58;7.13;;;3.87;;
19358;SDS011;9815;52.334;20.890;2024-02-14T10:33:29;13.63;;;4.30;;
19358;SDS011;9815;52.334;20.890;2024-02-14T10:35:57;8.83;;;4.70;;
19358;SDS011;9815;52.334;20.890;2024-02-14T10:38:30;8.53;;;4.30;;
19358;SDS011;9815;52.334;20.890;2024-02-14T10:40:59;8.53;;;3.90;;
19358;SDS011;9815;52.334;20.890;2024-02-14T10:43:30;12.83;;;4.00;;
19358;SDS011;9815;52.334;20.890;2024-02-14T10:46:00;8.17;;;3.97;;
19358;SDS011;9815;52.334;20.890;2024-02-14T10:48:35;13.67;;;3.63;;
19358;SDS011;9815;52.334;20.890;2024-02-14T10:51:06;10.97;;;3.43;;
19358;SDS011;9815;52.334;20.890;2024-02-14T10:53:37;6.73;;;3.77;;
19358;SDS011;9815;52.334;20.890;2024-02-14T10:56:12;8.43;;;3.43;;
19358;SDS011;9815;52.334;20.890;2024-02-14T10:58:45;6.33;;;3.20;;
19358;SDS011;9815;52.334;20.890;2024-02-14T11:01:15;8.70;;;3.40;;
19358;SDS011;9815;52.334;20.890;2024-02-14T11:03:48;7.63;;;3.20;;
19358;SDS011;9815;52.334;20.890;2024-02-14T11:06:18;8.43;;;3.43;;
19358;SDS011;9815;52.334;20.890;2024-02-14T11:08:56;7.83;;;3.40;;
19358;SDS011;9815;52.334;20.890;2024-02-14T11:11:25;8.50;;;2.63;;
19358;SDS011;9815;52.334;20.890;2024-02-14T11:13:57;6.07;;;2.80;;
19358;SDS011;9815;52.334;20.890;2024-02-14T11:16:26;6.53;;;3.00;;
19358;SDS011;9815;52.334;20.890;2024-02-14T11:19:07;4.63;;;2.60;;
19358;SDS011;9815;52.334;20.890;2024-02-14T11:21:39;4.70;;;2.47;;
19358;SDS011;9815;52.334;20.890;2024-02-14T11:24:10;5.50;;;2.50;;
19358;SDS011;9815;52.334;20.890;2024-02-14T11:26:48;5.33;;;2.60;;
19358;SDS011;9815;52.334;20.890;2024-02-14T11:29:19;5.13;;;2.40;;
19358;SDS011;9815;52.334;20.890;2024-02-14T11:31:57;9.60;;;2.47;;
19358;SDS011;9815;52.334;20.890;2024-02-14T11:34:28;4.33;;;2.50;;
19358;SDS011;9815;52.334;20.890;2024-02-14T11:37:03;4.30;;;2.70;;
19358;SDS011;9815;52.334;20.890;2024-02-14T11:39:33;5.63;;;2.30;;
19358;SDS011;9815;52.334;20.890;2024-02-14T11:42:01;4.17;;;2.20;;
19358;SDS011;9815;52.334;20.890;2024-02-14T11:44:30;11.80;;;2.90;;
19358;SDS011;9815;52.334;20.890;2024-02-14T11:46:59;4.93;;;2.40;;
19358;SDS011;9815;52.334;20.890;2024-02-14T11:49:30;6.83;;;2.57;;
19358;SDS011;9815;52.334;20.890;2024-02-14T11:51:58;5.80;;;2.20;;
19358;SDS011;9815;52.334;20.890;2024-02-14T11:54:27;3.60;;;2.10;;
19358;SDS011;9815;52.334;20.890;2024-02-14T11:56:55;4.97;;;2.03;;
19358;SDS011;9815;52.334;20.890;2024-02-14T11:59:25;1.93;;;1.70;;
19358;SDS011;9815;52.334;20.890;2024-02-14T12:01:53;4.57;;;1.93;;
19358;SDS011;9815;52.334;20.890;2024-02-14T12:04:24;4.90;;;2.23;;
19358;SDS011;9815;52.334;20.890;2024-02-14T12:06:56;4.27;;;1.90;;
19358;SDS011;9815;52.334;20.890;2024-02-14T12:09:25;4.73;;;1.93;;
19358;SDS011;9815;52.334;20.890;2024-02-14T12:11:56;6.77;;;2.30;;
19358;SDS011;9815;52.334;20.890;2024-02-14T12:14:26;3.93;;;2.27;;
19358;SDS011;9815;52.334;20.890;2024-02-14T12:16:56;5.57;;;2.37;;
19358;SDS011;9815;52.334;20.890;2024-02-14T12:19:27;5.00;;;2.53;;
19358;SDS011;9815;52.334;20.890;2024-02-14T12:22:00;4.80;;;1.80;;
19358;SDS011;9815;52.334;20.890;2024-02-14T12:24:29;3.80;;;2.33;;
19358;SDS011;9815;52.334;20.890;2024-02-14T12:26:57;4.93;;;2.57;;
19358;SDS011;9815;52.334;20.890;2024-02-14T12:29:26;3.63;;;2.30;;
19358;SDS011;9815;52.334;20.890;2024-02-14T12:32:02;5.73;;;2.33;;
19358;SDS011;9815;52.334;20.890;2024-02-14T12:34:32;6.03;;;2.40;;
19358;SDS011;9815;52.334;20.890;2024-02-14T12:37:02;3.97;;;2.30;;
19358;SDS011;9815;52.334;20.890;2024-02-14T12:39:32;3.40;;;2.20;;
19358;SDS011;9815;52.334;20.890;2024-02-14T12:42:01;6.27;;;2.63;;
19358;SDS011;9815;52.334;20.890;2024-02-14T12:44:34;8.13;;;2.40;;
19358;SDS011;9815;52.334;20.890;2024-02-14T12:47:03;5.63;;;2.37;;
19358;SDS011;9815;52.334;20.890;2024-02-14T12:49:31;6.73;;;2.70;;
19358;SDS011;9815;52.334;20.890;2024-02-14T12:52:00;5.00;;;2.63;;
19358;SDS011;9815;52.334;20.890;2024-02-14T12:54:31;7.10;;;2.60;;
19358;SDS011;9815;52.334;20.890;2024-02-14T12:57:01;6.10;;;2.47;;
19358;SDS011;9815;52.334;20.890;2024-02-14T12:59:29;6.47;;;2.93;;
19358;SDS011;9815;52.334;20.890;2024-02-14T13:01:58;4.00;;;2.57;;
19358;SDS011;9815;52.334;20.890;2024-02-14T13:04:27;5.97;;;2.90;;
19358;SDS011;9815;52.334;20.890;2024-02-14T13:06:58;4.87;;;2.77;;
19358;SDS011;9815;52.334;20.890;2024-02-14T13:09:28;6.40;;;2.53;;
19358;SDS011;9815;52.334;20.890;2024-02-14T13:11:58;5.27;;;2.97;;
19358;SDS011;9815;52.334;20.890;2024-02-14T13:14:27;7.83;;;3.00;;
19358;SDS011;9815;52.334;20.890;2024-02-14T13:16:59;4.87;;;2.60;;
19358;SDS011;9815;52.334;20.890;2024-02-14T13:19:28;6.77;;;2.53;;
19358;SDS011;9815;52.334;20.890;2024-02-14T13:21:58;8.20;;;2.70;;
19358;SDS011;9815;52.334;20.890;2024-02-14T13:24:30;8.87;;;2.50;;
19358;SDS011;9815;52.334;20.890;2024-02-14T13:26:59;7.63;;;2.63;;
19358;SDS011;9815;52.334;20.890;2024-02-14T13:29:27;8.00;;;3.03;;
19358;SDS011;9815;52.334;20.890;2024-02-14T13:31:56;7.60;;;2.77;;
19358;SDS011;9815;52.334;20.890;2024-02-14T13:34:24;8.07;;;2.97;;
19358;SDS011;9815;52.334;20.890;2024-02-14T13:36:53;7.77;;;2.90;;
19358;SDS011;9815;52.334;20.890;2024-02-14T13:39:23;4.23;;;2.53;;
19358;SDS011;9815;52.334;20.890;2024-02-14T13:41:53;4.10;;;2.87;;
19358;SDS011;9815;52.334;20.890;2024-02-14T13:44:25;5.83;;;2.70;;
19358;SDS011;9815;52.334;20.890;2024-02-14T13:46:54;4.13;;;2.63;;
19358;SDS011;9815;52.334;20.890;2024-02-14T13:49:22;5.37;;;2.40;;
19358;SDS011;9815;52.334;20.890;2024-02-14T13:51:51;8.60;;;2.73;;
19358;SDS011;9815;52.334;20.890;2024-02-14T13:54:20;4.10;;;2.70;;
19358;SDS011;9815;52.334;20.890;2024-02-14T13:56:48;6.33;;;2.80;;
19358;SDS011;9815;52.334;20.890;2024-02-14T13:59:18;5.03;;;2.67;;
19358;SDS011;9815;52.334;20.890;2024-02-14T14:01:47;6.90;;;3.10;;
19358;SDS011;9815;52.334;20.890;2024-02-14T14:04:15;8.03;;;3.43;;
19358;SDS011;9815;52.334;20.890;2024-02-14T14:06:44;8.30;;;3.50;;
19358;SDS011;9815;52.334;20.890;2024-02-14T14:09:14;5.33;;;3.10;;
19358;SDS011;9815;52.334;20.890;2024-02-14T14:11:43;9.90;;;3.50;;
19358;SDS011;9815;52.334;20.890;2024-02-14T14:14:12;8.67;;;3.03;;
19358;SDS011;9815;52.334;20.890;2024-02-14T14:16:46;6.33;;;2.93;;
19358;SDS011;9815;52.334;20.890;2024-02-14T14:19:14;6.83;;;2.50;;
19358;SDS011;9815;52.334;20.890;2024-02-14T14:21:43;11.47;;;4.10;;
19358;SDS011;9815;52.334;20.890;2024-02-14T14:24:11;10.07;;;4.03;;
19358;SDS011;9815;52.334;20.890;2024-02-14T14:26:41;7.07;;;3.10;;
19358;SDS011;9815;52.334;20.890;2024-02-14T14:29:10;4.57;;;2.93;;
19358;SDS011;9815;52.334;20.890;2024-02-14T14:31:38;4.73;;;2.83;;
19358;SDS011;9815;52.334;20.890;2024-02-14T14:34:08;3.17;;;2.63;;
19358;SDS011;9815;52.334;20.890;2024-02-14T14:36:37;11.67;;;5.00;;
19358;SDS011;9815;52.334;20.890;2024-02-14T14:39:07;20.30;;;6.80;;
19358;SDS011;9815;52.334;20.890;2024-02-14T14:41:38;14.87;;;4.80;;
19358;SDS011;9815;52.334;20.890;2024-02-14T14:44:08;8.73;;;3.90;;
19358;SDS011;9815;52.334;20.890;2024-02-14T14:46:38;9.73;;;3.97;;